Aeroporto :
LOGIN :

Iscrizione | Disclaimer

   EN    FR    IT 

 










Sommario :    VFR   VFR Marginale   IFR   IFR Intensivo   IFR Molto Intensivo
Visibilità : 
Base nubi : 
>= 8 km
>= 3000ft
5 / 8 km
1000 / 3000 ft
1500m / 5 km
500 / 1000 ft
800 / 1500m
200 / 500 ft
< 800m
< 200 ft
Simboli :   Temporali  Nebbia  Neve Forte  Precipitazioni Forti  Vento > 20 kt
SIGMETs :   Varie  Temporali  Ghiacco  Turbolenza  Onda orograficha  Ceneri Vulcaniche






- Altitudine del aeroporto : 16 ft
- Codice IATA : EAS


LESO - San Sebastian Fuenterrabia

ULTIMO METAR :
  • 272100Z AUTO VRB06G19KT 2700 -RA BR VV001 13/12 Q1022

METARs OBSOLETI :
  • 272030Z VRB05G18KT 7000 -RA SCT006 BKN010 13/12 Q1022
  • 272000Z VRB05KT 6000 -RA SCT006 BKN012 13/12 Q1022
  • 271930Z VRB06KT 5000 RA BKN010 13/12 Q1022
  • 271900Z 27006KT 170V330 6000 RA BKN010 13/12 Q1021
  • 271830Z 24010G20KT 200V300 7000 -RA BKN012 13/12 Q1021

TAF AMD TAF LESO
Valido dal 27 a 19 ore il 28 a 18 ore UTC


271930Z 2719/2818 26008KT 6000 -RA BKN015 TX13/2812Z TN11/2806Z
TEMPO 2719/2721 26015G30KT
TEMPO 2719/2806 3000 RA BKN008
TEMPO 2719/2724 1400 RA BKN005



MetMap, La meteo Aeronautica in un colpo d'occhio ! - Copyright ORBIFLY Dicembre 2007 - Disclaimer

ORBIFLY MET'MAP TEAM :

Programmazione e sviluppo : Alexandra Zaïnal
Concezione : Baudouin d'Aumeries
Aiuto per la programmazione : Marc-Olivier Méhu
Supporto tecnico e logistico : Manuel Goepfert
Aiuto per la traduzione : Arnaldo La Scala

Contatto : metmap@orbifly.com




FONTI E CREDITI :

   NOAA